sensor_id;sensor_type;location;lat;lon;timestamp;noise_LAeq;noise_LA_min;noise_LA_max;noise_LA01;noise_LA95
71628;Laerm;59477;52.374;9.916;2022-09-20T00:03:02;52.41;46.39;59.44;;
71628;Laerm;59477;52.374;9.916;2022-09-20T00:05:03;51.06;46.66;55.76;;
71628;Laerm;59477;52.374;9.916;2022-09-20T00:07:04;49.80;45.88;58.83;;
71628;Laerm;59477;52.374;9.916;2022-09-20T00:09:04;50.02;45.28;54.21;;
71628;Laerm;59477;52.374;9.916;2022-09-20T00:11:07;50.15;44.99;55.72;;
71628;Laerm;59477;52.374;9.916;2022-09-20T00:13:08;50.61;46.28;57.04;;
71628;Laerm;59477;52.374;9.916;2022-09-20T00:15:09;51.60;46.50;56.95;;
71628;Laerm;59477;52.374;9.916;2022-09-20T00:17:10;50.09;44.90;58.35;;
71628;Laerm;59477;52.374;9.916;2022-09-20T00:19:14;48.76;43.98;54.85;;
71628;Laerm;59477;52.374;9.916;2022-09-20T00:21:16;50.61;45.59;57.04;;
71628;Laerm;59477;52.374;9.916;2022-09-20T00:23:18;50.11;44.93;56.71;;
71628;Laerm;59477;52.374;9.916;2022-09-20T00:25:19;50.47;45.72;55.51;;
71628;Laerm;59477;52.374;9.916;2022-09-20T00:27:19;50.32;45.85;57.59;;
71628;Laerm;59477;52.374;9.916;2022-09-20T00:29:20;49.66;45.25;58.89;;
71628;Laerm;59477;52.374;9.916;2022-09-20T00:31:21;50.11;45.45;54.92;;
71628;Laerm;59477;52.374;9.916;2022-09-20T00:33:22;49.10;44.89;55.96;;
71628;Laerm;59477;52.374;9.916;2022-09-20T00:35:23;50.31;45.92;55.22;;
71628;Laerm;59477;52.374;9.916;2022-09-20T00:37:24;50.16;45.80;55.75;;
71628;Laerm;59477;52.374;9.916;2022-09-20T00:39:25;50.32;46.07;54.96;;
71628;Laerm;59477;52.374;9.916;2022-09-20T00:41:25;49.05;45.14;53.31;;
71628;Laerm;59477;52.374;9.916;2022-09-20T00:43:42;50.63;46.57;57.44;;
71628;Laerm;59477;52.374;9.916;2022-09-20T00:45:43;50.67;45.82;56.87;;
71628;Laerm;59477;52.374;9.916;2022-09-20T00:49:49;50.53;44.21;57.66;;
71628;Laerm;59477;52.374;9.916;2022-09-20T00:51:53;49.82;44.04;57.36;;
71628;Laerm;59477;52.374;9.916;2022-09-20T00:53:55;50.83;45.54;57.73;;
71628;Laerm;59477;52.374;9.916;2022-09-20T00:56:05;50.82;46.72;56.22;;
71628;Laerm;59477;52.374;9.916;2022-09-20T00:58:09;50.69;45.62;56.76;;
71628;Laerm;59477;52.374;9.916;2022-09-20T01:00:10;50.90;46.02;55.02;;
71628;Laerm;59477;52.374;9.916;2022-09-20T01:02:13;49.70;45.94;55.28;;
71628;Laerm;59477;52.374;9.916;2022-09-20T01:04:15;50.50;46.75;55.31;;
71628;Laerm;59477;52.374;9.916;2022-09-20T01:06:18;50.43;45.73;56.62;;
71628;Laerm;59477;52.374;9.916;2022-09-20T01:08:19;50.84;46.68;55.80;;
71628;Laerm;59477;52.374;9.916;2022-09-20T01:10:20;53.12;48.23;64.31;;
71628;Laerm;59477;52.374;9.916;2022-09-20T01:12:23;50.93;46.17;57.83;;
71628;Laerm;59477;52.374;9.916;2022-09-20T01:14:25;50.92;44.82;61.19;;
71628;Laerm;59477;52.374;9.916;2022-09-20T01:16:26;51.40;46.47;59.18;;
71628;Laerm;59477;52.374;9.916;2022-09-20T01:18:28;52.33;48.30;59.07;;
71628;Laerm;59477;52.374;9.916;2022-09-20T01:20:30;52.22;47.24;56.14;;
71628;Laerm;59477;52.374;9.916;2022-09-20T01:22:40;52.07;46.86;58.23;;
71628;Laerm;59477;52.374;9.916;2022-09-20T01:24:47;51.47;46.71;56.20;;
71628;Laerm;59477;52.374;9.916;2022-09-20T01:27:10;50.79;45.97;56.51;;
71628;Laerm;59477;52.374;9.916;2022-09-20T01:31:22;52.30;47.99;57.25;;
71628;Laerm;59477;52.374;9.916;2022-09-20T01:33:28;53.09;48.47;58.28;;
71628;Laerm;59477;52.374;9.916;2022-09-20T01:35:30;52.72;48.14;57.17;;
71628;Laerm;59477;52.374;9.916;2022-09-20T01:37:47;51.79;47.36;56.23;;
71628;Laerm;59477;52.374;9.916;2022-09-20T01:42:04;53.56;48.00;64.53;;
71628;Laerm;59477;52.374;9.916;2022-09-20T01:44:12;53.22;48.86;58.19;;
71628;Laerm;59477;52.374;9.916;2022-09-20T01:46:32;54.23;49.12;58.69;;
71628;Laerm;59477;52.374;9.916;2022-09-20T01:57:28;51.38;45.58;58.51;;
71628;Laerm;59477;52.374;9.916;2022-09-20T02:12:55;52.27;46.85;57.56;;
71628;Laerm;59477;52.374;9.916;2022-09-20T02:15:08;51.43;47.48;61.27;;
71628;Laerm;59477;52.374;9.916;2022-09-20T02:17:13;50.73;46.59;56.56;;
71628;Laerm;59477;52.374;9.916;2022-09-20T02:21:26;52.36;47.28;57.85;;
71628;Laerm;59477;52.374;9.916;2022-09-20T02:23:40;53.16;47.61;59.47;;
71628;Laerm;59477;52.374;9.916;2022-09-20T02:34:07;52.93;47.58;58.67;;
71628;Laerm;59477;52.374;9.916;2022-09-20T02:36:28;53.51;48.15;60.21;;
71628;Laerm;59477;52.374;9.916;2022-09-20T02:43:01;51.77;47.49;57.91;;
71628;Laerm;59477;52.374;9.916;2022-09-20T02:45:05;51.32;46.69;56.74;;
71628;Laerm;59477;52.374;9.916;2022-09-20T02:51:34;50.58;45.63;57.19;;
71628;Laerm;59477;52.374;9.916;2022-09-20T02:53:41;50.90;46.06;57.27;;
71628;Laerm;59477;52.374;9.916;2022-09-20T02:56:07;52.32;48.04;59.27;;
71628;Laerm;59477;52.374;9.916;2022-09-20T03:00:22;51.02;45.97;60.92;;
71628;Laerm;59477;52.374;9.916;2022-09-20T03:02:44;51.44;46.20;57.15;;
71628;Laerm;59477;52.374;9.916;2022-09-20T03:13:03;51.90;45.57;58.96;;
71628;Laerm;59477;52.374;9.916;2022-09-20T03:17:29;51.54;47.19;56.75;;
71628;Laerm;59477;52.374;9.916;2022-09-20T03:28:17;52.16;47.76;57.92;;
71628;Laerm;59477;52.374;9.916;2022-09-20T03:30:26;54.92;48.99;60.21;;
71628;Laerm;59477;52.374;9.916;2022-09-20T03:49:30;52.63;48.64;57.84;;
71628;Laerm;59477;52.374;9.916;2022-09-20T04:00:07;50.25;45.73;56.06;;
71628;Laerm;59477;52.374;9.916;2022-09-20T04:02:13;50.22;46.80;54.89;;
71628;Laerm;59477;52.374;9.916;2022-09-20T04:06:59;51.94;47.16;61.76;;
71628;Laerm;59477;52.374;9.916;2022-09-20T04:11:22;52.57;47.74;57.72;;
71628;Laerm;59477;52.374;9.916;2022-09-20T04:13:29;53.52;48.72;57.88;;
71628;Laerm;59477;52.374;9.916;2022-09-20T04:15:36;54.69;49.99;61.58;;
71628;Laerm;59477;52.374;9.916;2022-09-20T04:17:48;53.02;46.19;59.65;;
71628;Laerm;59477;52.374;9.916;2022-09-20T04:19:55;53.63;46.11;61.03;;
71628;Laerm;59477;52.374;9.916;2022-09-20T04:21:58;54.09;49.04;61.62;;
71628;Laerm;59477;52.374;9.916;2022-09-20T04:24:10;54.75;50.23;59.55;;
71628;Laerm;59477;52.374;9.916;2022-09-20T04:26:12;53.01;48.36;57.64;;
71628;Laerm;59477;52.374;9.916;2022-09-20T04:28:18;53.31;48.94;58.13;;
71628;Laerm;59477;52.374;9.916;2022-09-20T04:30:21;52.30;48.22;58.54;;
71628;Laerm;59477;52.374;9.916;2022-09-20T04:32:43;53.67;49.36;58.74;;
71628;Laerm;59477;52.374;9.916;2022-09-20T04:34:47;53.72;49.19;58.76;;
71628;Laerm;59477;52.374;9.916;2022-09-20T04:37:23;54.64;50.52;59.65;;
71628;Laerm;59477;52.374;9.916;2022-09-20T04:56:46;53.12;48.64;59.53;;
71628;Laerm;59477;52.374;9.916;2022-09-20T04:59:01;52.33;47.99;58.51;;
71628;Laerm;59477;52.374;9.916;2022-09-20T05:03:39;53.61;48.42;59.29;;
71628;Laerm;59477;52.374;9.916;2022-09-20T05:20:53;53.77;49.58;61.02;;
71628;Laerm;59477;52.374;9.916;2022-09-20T05:27:40;53.87;50.46;58.36;;
71628;Laerm;59477;52.374;9.916;2022-09-20T05:31:50;54.83;50.81;58.72;;
71628;Laerm;59477;52.374;9.916;2022-09-20T05:34:08;53.51;49.71;59.05;;
71628;Laerm;59477;52.374;9.916;2022-09-20T05:38:36;52.30;48.57;61.00;;
71628;Laerm;59477;52.374;9.916;2022-09-20T05:43:12;51.71;47.24;57.20;;
71628;Laerm;59477;52.374;9.916;2022-09-20T05:47:36;51.18;47.43;58.38;;
71628;Laerm;59477;52.374;9.916;2022-09-20T05:49:44;54.14;49.00;61.78;;
71628;Laerm;59477;52.374;9.916;2022-09-20T06:00:33;53.44;48.14;65.60;;
71628;Laerm;59477;52.374;9.916;2022-09-20T06:04:47;53.08;48.49;58.63;;
71628;Laerm;59477;52.374;9.916;2022-09-20T06:06:57;52.49;48.37;59.99;;
71628;Laerm;59477;52.374;9.916;2022-09-20T06:11:34;53.85;49.79;57.70;;
71628;Laerm;59477;52.374;9.916;2022-09-20T06:15:44;54.74;50.42;60.00;;
71628;Laerm;59477;52.374;9.916;2022-09-20T06:18:01;52.42;48.52;56.95;;
71628;Laerm;59477;52.374;9.916;2022-09-20T06:20:12;52.62;48.27;56.53;;
71628;Laerm;59477;52.374;9.916;2022-09-20T06:24:45;52.11;47.66;58.57;;
71628;Laerm;59477;52.374;9.916;2022-09-20T06:26:46;52.12;47.75;57.93;;
71628;Laerm;59477;52.374;9.916;2022-09-20T06:28:53;52.36;47.41;56.46;;
71628;Laerm;59477;52.374;9.916;2022-09-20T06:30:55;53.22;49.48;60.61;;
71628;Laerm;59477;52.374;9.916;2022-09-20T06:34:57;51.77;47.40;59.90;;
71628;Laerm;59477;52.374;9.916;2022-09-20T06:37:11;51.93;48.24;57.95;;
71628;Laerm;59477;52.374;9.916;2022-09-20T06:39:49;52.38;48.19;60.27;;
71628;Laerm;59477;52.374;9.916;2022-09-20T06:42:10;51.53;48.03;58.50;;
71628;Laerm;59477;52.374;9.916;2022-09-20T06:44:11;51.61;47.65;55.43;;
71628;Laerm;59477;52.374;9.916;2022-09-20T06:46:11;51.44;46.79;56.61;;
71628;Laerm;59477;52.374;9.916;2022-09-20T06:48:14;50.04;46.55;55.30;;
71628;Laerm;59477;52.374;9.916;2022-09-20T06:50:15;50.00;46.29;53.97;;
71628;Laerm;59477;52.374;9.916;2022-09-20T06:52:17;50.51;46.01;55.91;;
71628;Laerm;59477;52.374;9.916;2022-09-20T06:54:18;49.32;44.72;59.59;;
71628;Laerm;59477;52.374;9.916;2022-09-20T06:56:24;49.56;45.65;55.14;;
71628;Laerm;59477;52.374;9.916;2022-09-20T06:58:26;51.33;46.30;63.54;;
71628;Laerm;59477;52.374;9.916;2022-09-20T07:00:27;49.36;45.92;59.95;;
71628;Laerm;59477;52.374;9.916;2022-09-20T07:02:28;52.89;46.01;72.19;;
71628;Laerm;59477;52.374;9.916;2022-09-20T07:04:29;50.68;46.52;66.34;;
71628;Laerm;59477;52.374;9.916;2022-09-20T07:06:30;50.60;46.66;54.77;;
71628;Laerm;59477;52.374;9.916;2022-09-20T07:08:31;51.39;47.78;55.39;;
71628;Laerm;59477;52.374;9.916;2022-09-20T07:10:32;50.76;46.66;59.66;;
71628;Laerm;59477;52.374;9.916;2022-09-20T07:12:32;50.56;46.70;54.62;;
71628;Laerm;59477;52.374;9.916;2022-09-20T07:14:34;49.82;44.95;54.44;;
71628;Laerm;59477;52.374;9.916;2022-09-20T07:16:35;50.88;45.77;57.66;;
71628;Laerm;59477;52.374;9.916;2022-09-20T07:18:36;49.85;45.04;66.51;;
71628;Laerm;59477;52.374;9.916;2022-09-20T07:20:36;50.78;46.87;61.32;;
71628;Laerm;59477;52.374;9.916;2022-09-20T07:22:37;52.10;48.28;63.09;;
71628;Laerm;59477;52.374;9.916;2022-09-20T07:24:37;51.16;46.61;58.08;;
71628;Laerm;59477;52.374;9.916;2022-09-20T07:26:39;51.48;47.42;55.44;;
71628;Laerm;59477;52.374;9.916;2022-09-20T07:28:54;50.87;46.15;55.48;;
71628;Laerm;59477;52.374;9.916;2022-09-20T07:30:54;50.50;46.44;55.13;;
71628;Laerm;59477;52.374;9.916;2022-09-20T07:32:55;51.18;47.28;55.41;;
71628;Laerm;59477;52.374;9.916;2022-09-20T07:34:56;50.66;46.94;59.53;;
71628;Laerm;59477;52.374;9.916;2022-09-20T07:36:56;51.92;47.85;56.33;;
71628;Laerm;59477;52.374;9.916;2022-09-20T07:38:58;50.94;47.82;56.66;;
71628;Laerm;59477;52.374;9.916;2022-09-20T07:41:01;50.50;46.74;56.95;;
71628;Laerm;59477;52.374;9.916;2022-09-20T07:43:01;51.13;46.75;60.47;;
71628;Laerm;59477;52.374;9.916;2022-09-20T07:45:02;50.66;46.15;62.16;;
71628;Laerm;59477;52.374;9.916;2022-09-20T07:47:03;49.88;45.76;60.91;;
71628;Laerm;59477;52.374;9.916;2022-09-20T07:49:05;49.77;45.16;60.08;;
71628;Laerm;59477;52.374;9.916;2022-09-20T07:51:06;50.57;45.99;62.62;;
71628;Laerm;59477;52.374;9.916;2022-09-20T07:53:07;49.79;45.41;56.62;;
71628;Laerm;59477;52.374;9.916;2022-09-20T07:55:08;49.44;44.72;63.93;;
71628;Laerm;59477;52.374;9.916;2022-09-20T07:57:12;49.13;45.09;53.55;;
71628;Laerm;59477;52.374;9.916;2022-09-20T07:59:13;49.71;44.56;55.86;;
71628;Laerm;59477;52.374;9.916;2022-09-20T08:01:14;48.11;44.25;52.28;;
71628;Laerm;59477;52.374;9.916;2022-09-20T08:03:14;48.47;43.61;55.35;;
71628;Laerm;59477;52.374;9.916;2022-09-20T08:05:15;55.88;42.88;68.40;;
71628;Laerm;59477;52.374;9.916;2022-09-20T08:07:16;47.18;42.95;53.01;;
71628;Laerm;59477;52.374;9.916;2022-09-20T08:09:16;47.98;43.77;58.80;;
71628;Laerm;59477;52.374;9.916;2022-09-20T08:11:18;57.01;48.03;69.25;;
71628;Laerm;59477;52.374;9.916;2022-09-20T08:13:19;49.08;43.87;58.98;;
71628;Laerm;59477;52.374;9.916;2022-09-20T08:15:20;48.02;43.22;53.43;;
71628;Laerm;59477;52.374;9.916;2022-09-20T08:17:20;48.78;44.00;54.78;;
71628;Laerm;59477;52.374;9.916;2022-09-20T08:19:21;51.38;46.16;60.76;;
71628;Laerm;59477;52.374;9.916;2022-09-20T08:21:24;53.22;44.81;67.33;;
71628;Laerm;59477;52.374;9.916;2022-09-20T08:23:25;53.44;45.42;64.67;;
71628;Laerm;59477;52.374;9.916;2022-09-20T08:25:25;49.07;45.07;53.73;;
71628;Laerm;59477;52.374;9.916;2022-09-20T08:27:26;50.84;45.14;62.69;;
71628;Laerm;59477;52.374;9.916;2022-09-20T08:29:26;48.95;44.51;55.71;;
71628;Laerm;59477;52.374;9.916;2022-09-20T08:31:27;51.37;45.74;63.99;;
71628;Laerm;59477;52.374;9.916;2022-09-20T08:33:31;48.29;44.17;52.89;;
71628;Laerm;59477;52.374;9.916;2022-09-20T08:35:34;47.84;43.31;53.47;;
71628;Laerm;59477;52.374;9.916;2022-09-20T08:37:35;48.94;44.11;55.44;;
71628;Laerm;59477;52.374;9.916;2022-09-20T08:39:35;47.74;43.80;51.93;;
71628;Laerm;59477;52.374;9.916;2022-09-20T08:41:37;52.78;44.30;65.08;;
71628;Laerm;59477;52.374;9.916;2022-09-20T08:43:42;52.91;45.37;62.02;;
71628;Laerm;59477;52.374;9.916;2022-09-20T08:45:43;50.57;44.91;59.30;;
71628;Laerm;59477;52.374;9.916;2022-09-20T08:47:48;48.68;42.74;64.95;;
71628;Laerm;59477;52.374;9.916;2022-09-20T08:49:53;51.82;44.69;61.86;;
71628;Laerm;59477;52.374;9.916;2022-09-20T08:51:55;55.27;45.51;70.95;;
71628;Laerm;59477;52.374;9.916;2022-09-20T08:53:57;49.57;45.67;58.55;;
71628;Laerm;59477;52.374;9.916;2022-09-20T08:55:58;50.21;44.68;63.06;;
71628;Laerm;59477;52.374;9.916;2022-09-20T08:57:59;50.36;44.77;59.41;;
71628;Laerm;59477;52.374;9.916;2022-09-20T09:00:02;48.42;43.63;67.59;;
71628;Laerm;59477;52.374;9.916;2022-09-20T09:02:07;48.26;43.43;55.75;;
71628;Laerm;59477;52.374;9.916;2022-09-20T09:04:13;48.87;44.35;61.12;;
71628;Laerm;59477;52.374;9.916;2022-09-20T09:06:14;47.85;43.26;56.89;;
71628;Laerm;59477;52.374;9.916;2022-09-20T09:08:23;48.46;43.13;67.52;;
71628;Laerm;59477;52.374;9.916;2022-09-20T09:10:27;48.43;44.40;53.72;;
71628;Laerm;59477;52.374;9.916;2022-09-20T09:12:29;47.49;43.12;61.72;;
71628;Laerm;59477;52.374;9.916;2022-09-20T09:14:31;53.63;43.84;67.29;;
71628;Laerm;59477;52.374;9.916;2022-09-20T09:16:47;54.07;44.11;67.08;;
71628;Laerm;59477;52.374;9.916;2022-09-20T09:18:48;54.43;45.45;74.49;;
71628;Laerm;59477;52.374;9.916;2022-09-20T09:20:49;51.00;46.01;60.62;;
71628;Laerm;59477;52.374;9.916;2022-09-20T09:23:06;49.05;45.07;59.08;;
71628;Laerm;59477;52.374;9.916;2022-09-20T09:25:29;48.37;43.67;57.06;;
71628;Laerm;59477;52.374;9.916;2022-09-20T09:27:33;50.88;44.33;60.15;;
71628;Laerm;59477;52.374;9.916;2022-09-20T09:29:34;48.04;44.20;57.04;;
71628;Laerm;59477;52.374;9.916;2022-09-20T09:31:35;47.54;42.56;59.16;;
71628;Laerm;59477;52.374;9.916;2022-09-20T09:33:42;49.33;43.18;74.95;;
71628;Laerm;59477;52.374;9.916;2022-09-20T09:35:43;48.92;43.25;59.48;;
71628;Laerm;59477;52.374;9.916;2022-09-20T09:37:52;48.76;44.40;64.95;;
71628;Laerm;59477;52.374;9.916;2022-09-20T09:40:16;48.15;43.04;64.76;;
71628;Laerm;59477;52.374;9.916;2022-09-20T09:42:19;46.65;42.80;54.64;;
71628;Laerm;59477;52.374;9.916;2022-09-20T09:44:24;47.85;42.53;60.89;;
71628;Laerm;59477;52.374;9.916;2022-09-20T09:46:31;46.78;42.68;54.67;;
71628;Laerm;59477;52.374;9.916;2022-09-20T09:48:32;47.43;42.32;53.90;;
71628;Laerm;59477;52.374;9.916;2022-09-20T09:50:33;46.80;42.29;53.34;;
71628;Laerm;59477;52.374;9.916;2022-09-20T09:52:34;45.68;41.26;51.19;;
71628;Laerm;59477;52.374;9.916;2022-09-20T09:54:42;47.31;41.47;54.74;;
71628;Laerm;59477;52.374;9.916;2022-09-20T09:59:30;45.54;40.37;53.82;;
71628;Laerm;59477;52.374;9.916;2022-09-20T10:03:57;46.05;41.08;52.15;;
71628;Laerm;59477;52.374;9.916;2022-09-20T10:12:40;48.38;42.40;61.52;;
71628;Laerm;59477;52.374;9.916;2022-09-20T10:17:18;45.68;41.26;58.91;;
71628;Laerm;59477;52.374;9.916;2022-09-20T10:21:36;48.22;42.39;55.64;;
71628;Laerm;59477;52.374;9.916;2022-09-20T10:23:57;44.72;40.46;48.64;;
71628;Laerm;59477;52.374;9.916;2022-09-20T10:30:09;54.56;41.61;67.87;;
71628;Laerm;59477;52.374;9.916;2022-09-20T10:32:25;45.57;40.21;55.64;;
71628;Laerm;59477;52.374;9.916;2022-09-20T10:36:56;44.48;40.08;52.91;;
71628;Laerm;59477;52.374;9.916;2022-09-20T10:39:02;46.99;40.12;57.98;;
71628;Laerm;59477;52.374;9.916;2022-09-20T10:45:57;45.08;40.86;50.03;;
71628;Laerm;59477;52.374;9.916;2022-09-20T10:48:16;44.88;39.75;51.62;;
71628;Laerm;59477;52.374;9.916;2022-09-20T10:50:35;47.95;43.21;59.63;;
71628;Laerm;59477;52.374;9.916;2022-09-20T10:52:49;45.59;41.20;53.81;;
71628;Laerm;59477;52.374;9.916;2022-09-20T10:55:09;47.59;42.80;57.07;;
71628;Laerm;59477;52.374;9.916;2022-09-20T10:59:47;47.60;40.91;54.60;;
71628;Laerm;59477;52.374;9.916;2022-09-20T11:06:05;47.86;41.92;60.07;;
71628;Laerm;59477;52.374;9.916;2022-09-20T11:08:12;46.79;42.97;52.77;;
71628;Laerm;59477;52.374;9.916;2022-09-20T11:10:19;47.79;42.57;63.33;;
71628;Laerm;59477;52.374;9.916;2022-09-20T11:12:38;46.34;42.10;59.98;;
71628;Laerm;59477;52.374;9.916;2022-09-20T11:14:49;46.30;42.26;55.22;;
71628;Laerm;59477;52.374;9.916;2022-09-20T11:17:06;46.13;41.24;60.90;;
71628;Laerm;59477;52.374;9.916;2022-09-20T11:19:16;46.95;42.78;55.84;;
71628;Laerm;59477;52.374;9.916;2022-09-20T11:23:23;45.13;40.68;56.98;;
71628;Laerm;59477;52.374;9.916;2022-09-20T11:25:49;45.05;41.60;53.81;;
71628;Laerm;59477;52.374;9.916;2022-09-20T11:32:19;48.25;42.37;58.56;;
71628;Laerm;59477;52.374;9.916;2022-09-20T11:34:29;45.38;41.47;50.96;;
71628;Laerm;59477;52.374;9.916;2022-09-20T11:36:35;46.67;41.79;52.50;;
71628;Laerm;59477;52.374;9.916;2022-09-20T11:40:46;47.60;42.30;55.48;;
71628;Laerm;59477;52.374;9.916;2022-09-20T11:42:49;48.38;43.37;58.32;;
71628;Laerm;59477;52.374;9.916;2022-09-20T11:44:52;48.97;41.91;61.95;;
71628;Laerm;59477;52.374;9.916;2022-09-20T11:46:54;48.30;42.37;57.98;;
71628;Laerm;59477;52.374;9.916;2022-09-20T11:49:03;45.00;40.46;63.12;;
71628;Laerm;59477;52.374;9.916;2022-09-20T11:55:55;44.70;41.06;52.04;;
71628;Laerm;59477;52.374;9.916;2022-09-20T11:57:36;46.81;42.17;51.82;;
71628;Laerm;59477;52.374;9.916;2022-09-20T11:59:38;50.44;44.95;69.66;;
71628;Laerm;59477;52.374;9.916;2022-09-20T12:01:40;60.74;44.75;86.02;;
71628;Laerm;59477;52.374;9.916;2022-09-20T12:03:43;47.53;42.26;57.39;;
71628;Laerm;59477;52.374;9.916;2022-09-20T12:05:45;47.52;41.39;57.68;;
71628;Laerm;59477;52.374;9.916;2022-09-20T12:07:46;46.35;40.75;57.36;;
71628;Laerm;59477;52.374;9.916;2022-09-20T12:09:56;45.60;40.42;54.47;;
71628;Laerm;59477;52.374;9.916;2022-09-20T12:11:58;46.07;40.81;58.56;;
71628;Laerm;59477;52.374;9.916;2022-09-20T12:14:25;44.73;40.00;51.17;;
71628;Laerm;59477;52.374;9.916;2022-09-20T12:18:37;45.91;40.52;55.02;;
71628;Laerm;59477;52.374;9.916;2022-09-20T12:22:45;47.82;43.68;54.76;;
71628;Laerm;59477;52.374;9.916;2022-09-20T12:24:46;46.75;43.42;50.02;;
71628;Laerm;59477;52.374;9.916;2022-09-20T12:27:20;46.91;43.30;54.11;;
71628;Laerm;59477;52.374;9.916;2022-09-20T12:33:53;49.20;43.44;58.14;;
71628;Laerm;59477;52.374;9.916;2022-09-20T12:35:52;46.48;39.65;54.08;;
71628;Laerm;59477;52.374;9.916;2022-09-20T12:37:53;48.02;43.95;53.94;;
71628;Laerm;59477;52.374;9.916;2022-09-20T12:39:53;49.16;45.14;57.62;;
71628;Laerm;59477;52.374;9.916;2022-09-20T12:41:56;48.99;44.44;57.07;;
71628;Laerm;59477;52.374;9.916;2022-09-20T12:44:03;46.72;42.57;55.06;;
71628;Laerm;59477;52.374;9.916;2022-09-20T12:46:04;48.36;44.33;54.94;;
71628;Laerm;59477;52.374;9.916;2022-09-20T12:48:14;48.13;44.01;55.30;;
71628;Laerm;59477;52.374;9.916;2022-09-20T12:50:17;46.74;42.02;54.21;;
71628;Laerm;59477;52.374;9.916;2022-09-20T12:55:00;45.85;40.47;56.50;;
71628;Laerm;59477;52.374;9.916;2022-09-20T12:57:15;46.85;42.71;58.53;;
71628;Laerm;59477;52.374;9.916;2022-09-20T12:59:23;47.06;42.70;53.46;;
71628;Laerm;59477;52.374;9.916;2022-09-20T13:01:28;48.59;45.11;54.99;;
71628;Laerm;59477;52.374;9.916;2022-09-20T13:05:43;48.97;44.91;57.23;;
71628;Laerm;59477;52.374;9.916;2022-09-20T13:07:48;48.25;44.06;55.33;;
71628;Laerm;59477;52.374;9.916;2022-09-20T13:09:51;49.20;45.19;54.30;;
71628;Laerm;59477;52.374;9.916;2022-09-20T13:11:53;48.55;43.89;53.25;;
71628;Laerm;59477;52.374;9.916;2022-09-20T13:14:01;49.05;43.53;59.31;;
71628;Laerm;59477;52.374;9.916;2022-09-20T13:16:02;48.93;42.53;68.48;;
71628;Laerm;59477;52.374;9.916;2022-09-20T13:18:05;50.65;43.60;59.07;;
71628;Laerm;59477;52.374;9.916;2022-09-20T13:20:13;50.22;43.36;59.93;;
71628;Laerm;59477;52.374;9.916;2022-09-20T13:22:27;46.31;41.35;54.12;;
71628;Laerm;59477;52.374;9.916;2022-09-20T13:24:31;47.43;42.68;53.65;;
71628;Laerm;59477;52.374;9.916;2022-09-20T13:26:33;45.51;39.62;55.55;;
71628;Laerm;59477;52.374;9.916;2022-09-20T13:28:44;48.97;40.67;58.34;;
71628;Laerm;59477;52.374;9.916;2022-09-20T13:30:46;46.73;42.59;58.22;;
71628;Laerm;59477;52.374;9.916;2022-09-20T13:32:47;46.12;40.64;55.57;;
71628;Laerm;59477;52.374;9.916;2022-09-20T13:35:04;48.74;44.33;64.64;;
71628;Laerm;59477;52.374;9.916;2022-09-20T13:37:07;48.48;44.11;57.71;;
71628;Laerm;59477;52.374;9.916;2022-09-20T13:39:28;47.61;43.62;57.28;;
71628;Laerm;59477;52.374;9.916;2022-09-20T13:41:29;48.83;44.23;57.21;;
71628;Laerm;59477;52.374;9.916;2022-09-20T13:43:31;53.01;44.38;65.33;;
71628;Laerm;59477;52.374;9.916;2022-09-20T13:45:32;52.22;46.31;60.36;;
71628;Laerm;59477;52.374;9.916;2022-09-20T13:47:33;54.01;46.08;69.24;;
71628;Laerm;59477;52.374;9.916;2022-09-20T13:49:34;58.00;48.55;79.11;;
71628;Laerm;59477;52.374;9.916;2022-09-20T13:51:34;52.80;47.75;61.51;;
71628;Laerm;59477;52.374;9.916;2022-09-20T13:53:35;53.00;47.93;68.39;;
71628;Laerm;59477;52.374;9.916;2022-09-20T13:55:36;52.43;46.58;64.64;;
71628;Laerm;59477;52.374;9.916;2022-09-20T13:57:38;54.54;48.71;68.20;;
71628;Laerm;59477;52.374;9.916;2022-09-20T13:59:41;52.24;46.69;58.01;;
71628;Laerm;59477;52.374;9.916;2022-09-20T14:01:43;52.47;47.45;63.48;;
71628;Laerm;59477;52.374;9.916;2022-09-20T14:03:49;51.16;46.53;59.32;;
71628;Laerm;59477;52.374;9.916;2022-09-20T14:05:55;50.48;45.36;57.11;;
71628;Laerm;59477;52.374;9.916;2022-09-20T14:07:58;50.77;46.31;56.53;;
71628;Laerm;59477;52.374;9.916;2022-09-20T14:10:00;50.32;45.71;54.18;;
71628;Laerm;59477;52.374;9.916;2022-09-20T14:12:01;50.49;45.03;59.26;;
71628;Laerm;59477;52.374;9.916;2022-09-20T14:14:02;50.40;43.87;58.54;;
71628;Laerm;59477;52.374;9.916;2022-09-20T14:16:07;51.67;43.75;64.82;;
71628;Laerm;59477;52.374;9.916;2022-09-20T14:18:17;47.88;43.57;54.08;;
71628;Laerm;59477;52.374;9.916;2022-09-20T14:20:20;49.64;44.45;59.00;;
71628;Laerm;59477;52.374;9.916;2022-09-20T14:22:24;50.39;45.67;57.43;;
71628;Laerm;59477;52.374;9.916;2022-09-20T14:24:27;48.69;44.25;55.61;;
71628;Laerm;59477;52.374;9.916;2022-09-20T14:26:32;46.47;42.15;53.25;;
71628;Laerm;59477;52.374;9.916;2022-09-20T14:28:34;47.57;42.99;53.20;;
71628;Laerm;59477;52.374;9.916;2022-09-20T14:30:35;48.14;43.31;57.88;;
71628;Laerm;59477;52.374;9.916;2022-09-20T14:32:45;47.98;42.73;54.07;;
71628;Laerm;59477;52.374;9.916;2022-09-20T14:37:11;46.59;42.27;51.51;;
71628;Laerm;59477;52.374;9.916;2022-09-20T14:39:13;48.48;44.08;56.91;;
71628;Laerm;59477;52.374;9.916;2022-09-20T14:41:23;48.24;43.41;56.48;;
71628;Laerm;59477;52.374;9.916;2022-09-20T14:45:31;48.35;43.23;55.44;;
71628;Laerm;59477;52.374;9.916;2022-09-20T14:47:36;48.22;42.59;63.34;;
71628;Laerm;59477;52.374;9.916;2022-09-20T14:49:39;49.71;43.24;65.52;;
71628;Laerm;59477;52.374;9.916;2022-09-20T14:51:41;47.16;43.40;55.00;;
71628;Laerm;59477;52.374;9.916;2022-09-20T14:53:45;47.09;43.18;51.44;;
71628;Laerm;59477;52.374;9.916;2022-09-20T14:57:57;48.00;43.89;54.70;;
71628;Laerm;59477;52.374;9.916;2022-09-20T15:00:03;48.17;43.88;55.14;;
71628;Laerm;59477;52.374;9.916;2022-09-20T15:04:12;47.34;41.97;57.53;;
71628;Laerm;59477;52.374;9.916;2022-09-20T15:06:20;46.85;43.20;52.68;;
71628;Laerm;59477;52.374;9.916;2022-09-20T15:08:21;47.45;42.58;56.54;;
71628;Laerm;59477;52.374;9.916;2022-09-20T15:10:22;47.69;41.28;59.32;;
71628;Laerm;59477;52.374;9.916;2022-09-20T15:12:23;46.12;41.96;51.92;;
71628;Laerm;59477;52.374;9.916;2022-09-20T15:14:24;47.38;42.51;59.47;;
71628;Laerm;59477;52.374;9.916;2022-09-20T15:16:25;52.69;44.99;63.67;;
71628;Laerm;59477;52.374;9.916;2022-09-20T15:18:27;49.51;44.15;57.55;;
71628;Laerm;59477;52.374;9.916;2022-09-20T15:20:30;52.51;47.01;60.03;;
71628;Laerm;59477;52.374;9.916;2022-09-20T15:22:30;49.29;43.82;54.93;;
71628;Laerm;59477;52.374;9.916;2022-09-20T15:24:31;47.12;42.20;51.39;;
71628;Laerm;59477;52.374;9.916;2022-09-20T15:26:32;46.73;42.00;54.50;;
71628;Laerm;59477;52.374;9.916;2022-09-20T15:28:33;47.81;42.27;57.99;;
71628;Laerm;59477;52.374;9.916;2022-09-20T15:30:34;47.59;42.63;53.34;;
71628;Laerm;59477;52.374;9.916;2022-09-20T15:32:35;48.13;42.95;52.46;;
71628;Laerm;59477;52.374;9.916;2022-09-20T15:34:35;45.49;41.47;55.03;;
71628;Laerm;59477;52.374;9.916;2022-09-20T15:36:36;46.41;41.56;53.73;;
71628;Laerm;59477;52.374;9.916;2022-09-20T15:38:37;46.37;41.50;52.42;;
71628;Laerm;59477;52.374;9.916;2022-09-20T15:40:38;47.97;42.88;55.61;;